Time;durP1;ratioP1;P1;durP2;ratioP2;P2;SDS_P1;SDS_P2;PMS_P1;PMS_P2;Temp;Humidity;BMP_temperature;BMP_pressure;BME280_temperature;BME280_humidity;BME280_pressure;Samples;Min_cycle;Max_cycle;Signal;HPM_P1;HPM_P2
2022/06/10 00:01:02;;;;;;;11.82;3.75;;;12.90;99.90;;;;;;5020861;28;20078;-59
2022/06/10 00:03:28;;;;;;;11.73;3.65;;;13.00;99.90;;;;;;5020447;28;20038;-59
2022/06/10 00:06:00;;;;;;;16.02;4.55;;;12.90;99.90;;;;;;5020197;28;20531;-59
2022/06/10 00:08:30;;;;;;;14.32;3.90;;;12.80;99.90;;;;;;5020934;28;20045;-59
2022/06/10 00:10:56;;;;;;;12.80;3.70;;;12.90;99.90;;;;;;5019106;28;20474;-58
2022/06/10 00:13:25;;;;;;;8.75;3.70;;;12.70;99.90;;;;;;5021000;28;20065;-58
2022/06/10 00:15:53;;;;;;;10.32;3.20;;;12.70;99.90;;;;;;5019192;28;20121;-58
2022/06/10 00:18:19;;;;;;;12.88;4.40;;;12.80;99.90;;;;;;5020819;28;20050;-59
2022/06/10 00:20:44;;;;;;;13.05;3.67;;;12.60;99.90;;;;;;5020335;28;20041;-59
2022/06/10 00:23:11;;;;;;;9.82;3.90;;;12.60;99.90;;;;;;5019935;28;20520;-59
2022/06/10 00:25:37;;;;;;;10.50;3.45;;;12.70;99.90;;;;;;5020518;28;20088;-59
2022/06/10 00:28:04;;;;;;;11.85;3.75;;;12.70;99.90;;;;;;5001545;28;20061;-59
2022/06/10 00:30:31;;;;;;;9.60;3.65;;;12.70;99.90;;;;;;5020769;28;20042;-59
2022/06/10 00:32:58;;;;;;;13.32;4.10;;;12.70;99.90;;;;;;5019252;28;20042;-59
2022/06/10 00:35:25;;;;;;;11.05;3.45;;;12.60;99.90;;;;;;5020529;28;20117;-58
2022/06/10 00:37:50;;;;;;;11.82;4.43;;;12.60;99.90;;;;;;5020010;28;20042;-59
2022/06/10 00:40:23;;;;;;;10.27;3.85;;;12.70;99.90;;;;;;5019793;28;20073;-59
2022/06/10 00:42:49;;;;;;;13.10;3.78;;;12.60;99.90;;;;;;5022745;28;20034;-59
2022/06/10 00:45:54;;;;;;;13.70;3.95;;;12.70;99.90;;;;;;5022703;28;20082;-60
2022/06/10 00:48:28;;;;;;;13.90;4.30;;;12.70;99.90;;;;;;5024314;28;20543;-59
2022/06/10 00:50:55;;;;;;;15.07;3.70;;;12.60;99.90;;;;;;5023956;28;20525;-59
2022/06/10 00:53:26;;;;;;;16.20;4.03;;;12.60;99.90;;;;;;5023130;28;20038;-59
2022/06/10 00:55:54;;;;;;;15.70;3.80;;;12.60;99.90;;;;;;5024602;28;20050;-59
2022/06/10 00:58:47;;;;;;;13.70;4.68;;;12.60;99.90;;;;;;5022875;28;20050;-58
2022/06/10 01:01:15;;;;;;;10.70;3.50;;;12.50;99.90;;;;;;5024016;28;20498;-59
2022/06/10 01:03:41;;;;;;;11.23;3.72;;;12.50;99.90;;;;;;5023754;28;20084;-59
2022/06/10 01:06:08;;;;;;;10.25;3.92;;;12.50;99.90;;;;;;5023304;28;20140;-59
2022/06/10 01:08:34;;;;;;;9.43;3.17;;;12.50;99.90;;;;;;5024225;28;20046;-59
2022/06/10 01:11:24;;;;;;;10.27;3.53;;;12.40;99.90;;;;;;5022349;28;20049;-59
2022/06/10 01:14:27;;;;;;;11.50;3.75;;;12.40;99.90;;;;;;5023832;28;20061;-58
2022/06/10 01:17:34;;;;;;;11.35;3.58;;;12.40;99.90;;;;;;5023912;28;20058;-58
2022/06/10 01:20:08;;;;;;;9.75;3.75;;;12.40;99.90;;;;;;4907499;29;20085;-59
2022/06/10 01:23:06;;;;;;;11.60;3.83;;;12.30;99.90;;;;;;5008514;28;20065;-59
2022/06/10 01:25:47;;;;;;;9.80;3.65;;;12.40;99.90;;;;;;5023720;28;20080;-59
2022/06/10 01:28:24;;;;;;;12.70;4.00;;;12.30;99.90;;;;;;5022352;28;20050;-59
2022/06/10 01:31:08;;;;;;;9.07;3.88;;;12.30;99.90;;;;;;5005901;28;20041;-59
2022/06/10 01:33:52;;;;;;;9.63;3.58;;;12.30;99.90;;;;;;5023218;28;20058;-59
2022/06/10 01:36:20;;;;;;;9.07;3.83;;;12.30;99.90;;;;;;5022377;28;20050;-60
2022/06/10 01:38:54;;;;;;;14.07;4.53;;;12.40;99.90;;;;;;5023930;28;20100;-59
2022/06/10 01:41:26;;;;;;;9.30;4.18;;;12.20;99.90;;;;;;5021959;28;20052;-59
2022/06/10 01:44:04;;;;;;;;;;;12.20;99.90;;;;;;5023645;28;20110;-60
2022/06/10 01:46:37;;;;;;;11.25;4.22;;;12.20;99.90;;;;;;5022797;28;19932;-59
2022/06/10 01:49:11;;;;;;;14.07;4.28;;;12.20;99.90;;;;;;5022240;28;20062;-60
2022/06/10 01:51:57;;;;;;;10.52;4.03;;;12.20;99.90;;;;;;5023522;28;20125;-60
2022/06/10 01:54:36;;;;;;;8.60;3.85;;;12.10;99.90;;;;;;5003099;28;20058;-58
2022/06/10 01:57:08;;;;;;;14.65;4.90;;;12.20;99.90;;;;;;5022624;28;20103;-58
2022/06/10 01:59:44;;;;;;;11.17;4.50;;;12.00;99.90;;;;;;5023043;28;20056;-58
2022/06/10 02:02:14;;;;;;;11.15;4.97;;;12.00;99.90;;;;;;5021555;28;20152;-59
2022/06/10 02:04:46;;;;;;;11.57;4.35;;;12.00;99.90;;;;;;5023106;28;20050;-58
2022/06/10 02:07:26;;;;;;;12.18;3.92;;;11.90;99.90;;;;;;5021642;28;20045;-58
2022/06/10 02:10:05;;;;;;;11.88;3.95;;;12.00;99.90;;;;;;5022611;28;20049;-59
2022/06/10 02:12:43;;;;;;;13.23;4.65;;;12.10;99.90;;;;;;5022702;28;20449;-58
2022/06/10 02:15:24;;;;;;;10.38;4.60;;;11.90;99.90;;;;;;5021109;28;20049;-59
2022/06/10 02:17:59;;;;;;;11.93;4.50;;;12.10;99.90;;;;;;5022987;28;20061;-60
2022/06/10 02:20:29;;;;;;;10.57;4.07;;;11.90;99.90;;;;;;5021728;28;20049;-59
2022/06/10 02:22:58;;;;;;;14.43;4.05;;;11.90;99.90;;;;;;5022022;28;20088;-59
2022/06/10 02:25:29;;;;;;;12.55;4.57;;;11.90;99.90;;;;;;5022592;28;20050;-59
2022/06/10 02:28:00;;;;;;;12.23;4.00;;;12.00;99.90;;;;;;5021067;28;20077;-59
2022/06/10 02:30:30;;;;;;;11.80;4.93;;;11.90;99.90;;;;;;5022769;28;20034;-58
2022/06/10 02:32:57;;;;;;;12.30;4.07;;;11.90;99.90;;;;;;5021066;28;20046;-58
2022/06/10 02:35:35;;;;;;;14.27;4.70;;;11.90;99.90;;;;;;5022322;28;20060;-59
2022/06/10 02:38:18;;;;;;;14.82;4.55;;;11.90;99.90;;;;;;5022143;28;20046;-58
2022/06/10 02:40:59;;;;;;;14.05;5.13;;;11.90;99.90;;;;;;5020977;28;20042;-59
2022/06/10 02:43:25;;;;;;;11.68;4.05;;;11.90;99.90;;;;;;5022532;28;20046;-58
2022/06/10 02:46:16;;;;;;;13.38;4.35;;;11.90;99.90;;;;;;5020956;28;20050;-58
2022/06/10 02:49:00;;;;;;;11.13;4.78;;;12.00;99.90;;;;;;5021483;28;20046;-58
2022/06/10 02:51:27;;;;;;;10.90;4.45;;;11.90;99.90;;;;;;5022355;28;20053;-58
2022/06/10 02:53:53;;;;;;;9.98;4.30;;;11.80;99.90;;;;;;5020682;28;20041;-59
2022/06/10 02:56:22;;;;;;;12.40;4.38;;;11.90;99.90;;;;;;5022090;28;20068;-58
2022/06/10 03:01:52;;;;;;;15.18;4.95;;;11.80;99.90;;;;;;5021464;28;20129;-58
2022/06/10 03:04:26;;;;;;;13.45;5.20;;;11.80;99.90;;;;;;5022202;28;20049;-59
2022/06/10 03:07:18;;;;;;;12.20;4.30;;;11.90;99.90;;;;;;5020331;28;20053;-59
2022/06/10 03:10:10;;;;;;;13.65;4.57;;;11.90;99.90;;;;;;5021743;28;20041;-59
2022/06/10 03:12:46;;;;;;;11.07;4.63;;;11.90;99.90;;;;;;5021917;28;20093;-58
2022/06/10 03:15:30;;;;;;;13.27;4.72;;;11.80;99.90;;;;;;5020244;28;20413;-59
2022/06/10 03:18:15;;;;;;;12.57;4.75;;;11.80;99.90;;;;;;5021769;28;20119;-59
2022/06/10 03:21:05;;;;;;;14.82;5.10;;;11.80;99.90;;;;;;5021071;28;20049;-58
2022/06/10 03:23:55;;;;;;;12.25;4.22;;;11.80;99.90;;;;;;5020238;28;20093;-58
2022/06/10 03:26:25;;;;;;;11.45;4.15;;;11.80;99.90;;;;;;5021828;28;20073;-58
2022/06/10 03:29:00;;;;;;;14.88;5.18;;;11.80;99.90;;;;;;5020339;28;20054;-58
2022/06/10 03:31:36;;;;;;;14.65;4.93;;;11.80;99.90;;;;;;5020929;28;20041;-58
2022/06/10 03:34:08;;;;;;;14.15;4.63;;;11.80;99.90;;;;;;5021549;28;20042;-58
2022/06/10 03:36:35;;;;;;;11.77;4.70;;;11.90;99.90;;;;;;5019830;28;20053;-59
2022/06/10 03:39:01;;;;;;;15.40;4.63;;;11.80;99.90;;;;;;5021451;28;20042;-58
2022/06/10 03:41:34;;;;;;;13.40;4.72;;;11.70;99.90;;;;;;5019867;28;20478;-58
2022/06/10 03:44:06;;;;;;;15.45;4.63;;;11.90;99.90;;;;;;5020509;28;20533;-58
2022/06/10 03:46:33;;;;;;;12.07;4.53;;;11.70;99.90;;;;;;5020920;28;20068;-58
2022/06/10 03:49:06;;;;;;;10.25;4.30;;;11.80;99.90;;;;;;5020035;28;20046;-59
2022/06/10 03:51:32;;;;;;;17.05;6.60;;;11.90;99.90;;;;;;5021515;28;20139;-58
2022/06/10 03:53:58;;;;;;;12.75;4.65;;;11.90;99.90;;;;;;5002079;28;20053;-58
2022/06/10 03:56:24;;;;;;;11.85;4.43;;;12.00;99.90;;;;;;5021307;28;20133;-59
2022/06/10 03:58:50;;;;;;;12.13;3.90;;;11.90;99.90;;;;;;5019769;28;20045;-58
2022/06/10 04:01:16;;;;;;;14.30;4.22;;;12.10;99.90;;;;;;5020679;28;20072;-58
2022/06/10 04:03:42;;;;;;;11.63;4.28;;;12.10;99.90;;;;;;5020641;28;20069;-58
2022/06/10 04:06:08;;;;;;;11.70;4.10;;;12.10;99.90;;;;;;5019813;28;20042;-58
2022/06/10 04:08:34;;;;;;;18.88;4.53;;;12.20;99.90;;;;;;5020947;28;20073;-58
2022/06/10 04:11:00;;;;;;;11.52;3.95;;;12.10;99.90;;;;;;5019202;28;20049;-58
2022/06/10 04:13:25;;;;;;;12.02;4.40;;;12.20;99.90;;;;;;5020641;28;20042;-59
2022/06/10 04:15:51;;;;;;;11.38;4.10;;;12.10;99.90;;;;;;5019316;28;20058;-58
2022/06/10 04:18:17;;;;;;;13.30;3.97;;;12.30;99.90;;;;;;5020121;28;20050;-58
2022/06/10 04:20:43;;;;;;;13.85;3.80;;;12.40;99.90;;;;;;5020415;28;20049;-58
2022/06/10 04:23:09;;;;;;;11.50;3.70;;;12.40;99.90;;;;;;5019602;28;20112;-59
2022/06/10 04:25:37;;;;;;;10.48;4.25;;;12.60;99.90;;;;;;5020825;28;20060;-58
2022/06/10 04:28:03;;;;;;;11.98;4.30;;;12.60;99.90;;;;;;5018874;28;20046;-58
2022/06/10 04:30:33;;;;;;;10.40;3.83;;;12.80;99.90;;;;;;5020887;28;20050;-59
2022/06/10 04:32:59;;;;;;;14.65;3.95;;;12.80;99.90;;;;;;5019258;28;20088;-59
2022/06/10 04:35:26;;;;;;;11.85;3.90;;;12.90;99.90;;;;;;5020613;28;20050;-59
2022/06/10 04:37:53;;;;;;;10.45;3.92;;;13.10;99.90;;;;;;5020224;28;20046;-59
2022/06/10 04:40:22;;;;;;;12.10;3.20;;;13.30;99.90;;;;;;5019372;28;20049;-59
2022/06/10 04:42:49;;;;;;;13.43;3.95;;;13.40;99.90;;;;;;5020706;28;20042;-59
2022/06/10 04:45:17;;;;;;;12.63;4.18;;;13.30;99.90;;;;;;5018608;28;20046;-59
2022/06/10 04:47:43;;;;;;;13.45;4.07;;;13.30;99.90;;;;;;5020684;28;20046;-58
2022/06/10 04:50:11;;;;;;;12.23;3.60;;;13.30;99.90;;;;;;5019239;28;20045;-59
2022/06/10 04:52:37;;;;;;;13.18;4.22;;;13.40;99.90;;;;;;5020198;28;20077;-59
2022/06/10 04:55:08;;;;;;;12.88;3.80;;;13.40;99.90;;;;;;5019772;28;20115;-59
2022/06/10 04:57:34;;;;;;;12.23;4.13;;;13.40;99.90;;;;;;5001700;28;20097;-58
2022/06/10 05:00:01;;;;;;;15.38;3.60;;;13.40;99.90;;;;;;5020508;28;20338;-59
2022/06/10 05:02:26;;;;;;;15.23;4.25;;;13.40;99.90;;;;;;5018890;28;20046;-59
2022/06/10 05:04:52;;;;;;;14.65;4.20;;;13.50;99.90;;;;;;5020323;28;20440;-59
2022/06/10 05:07:18;;;;;;;13.98;4.13;;;13.40;99.90;;;;;;5019147;28;20098;-59
2022/06/10 05:09:43;;;;;;;13.85;4.75;;;13.50;99.90;;;;;;5019854;28;20056;-57
2022/06/10 05:12:09;;;;;;;18.27;4.25;;;13.60;99.90;;;;;;5020029;28;20068;-59
2022/06/10 05:14:35;;;;;;;12.95;3.67;;;13.60;99.90;;;;;;5018964;28;20398;-59
2022/06/10 05:17:02;;;;;;;14.23;4.13;;;13.70;99.90;;;;;;5020263;28;20498;-58
2022/06/10 05:19:29;;;;;;;12.25;4.00;;;13.60;99.90;;;;;;5018595;28;20046;-59
2022/06/10 05:21:56;;;;;;;15.68;3.60;;;13.70;99.90;;;;;;5020182;28;20049;-59
2022/06/10 05:24:22;;;;;;;11.25;3.90;;;13.60;99.90;;;;;;5018771;28;20050;-59
2022/06/10 05:26:48;;;;;;;14.57;4.90;;;13.80;99.90;;;;;;5002295;28;20469;-57
2022/06/10 05:29:13;;;;;;;9.32;3.40;;;13.70;99.90;;;;;;5022273;28;20060;-58
2022/06/10 05:31:39;;;;;;;11.75;4.00;;;13.80;99.90;;;;;;5022744;28;20034;-59
2022/06/10 05:36:49;;;;;;;14.77;4.80;;;13.90;99.90;;;;;;5022160;28;20076;-59
2022/06/10 05:39:15;;;;;;;13.30;4.00;;;14.00;99.90;;;;;;5023652;28;20494;-59
2022/06/10 05:44:26;;;;;;;18.42;3.78;;;14.00;99.90;;;;;;5022158;28;20541;-58
2022/06/10 05:46:53;;;;;;;12.20;3.83;;;14.10;99.90;;;;;;5023408;28;20042;-59
2022/06/10 05:49:19;;;;;;;13.82;4.10;;;14.10;99.90;;;;;;5021935;28;20049;-58
2022/06/10 05:51:45;;;;;;;17.45;5.15;;;14.20;99.90;;;;;;5023748;28;20103;-59
2022/06/10 05:54:11;;;;;;;14.63;4.20;;;14.20;99.90;;;;;;5021764;28;20420;-59
2022/06/10 05:56:37;;;;;;;11.55;4.00;;;14.20;99.90;;;;;;5023341;28;20077;-59
2022/06/10 05:59:03;;;;;;;13.48;4.20;;;14.40;99.90;;;;;;5022556;28;20042;-58
2022/06/10 06:01:29;;;;;;;12.20;4.10;;;14.40;99.90;;;;;;5022457;28;20108;-59
2022/06/10 06:03:55;;;;;;;15.65;4.15;;;14.60;99.90;;;;;;5023153;28;20493;-59
2022/06/10 06:06:21;;;;;;;16.42;4.68;;;14.60;99.90;;;;;;5021552;28;20069;-60
2022/06/10 06:08:48;;;;;;;12.65;4.40;;;14.70;99.90;;;;;;5023162;28;20482;-59
2022/06/10 06:11:17;;;;;;;10.45;4.35;;;14.90;99.90;;;;;;5021475;28;20097;-59
2022/06/10 06:13:43;;;;;;;19.33;4.22;;;14.90;99.90;;;;;;5022649;28;20065;-58
2022/06/10 06:16:14;;;;;;;15.95;3.58;;;14.90;99.90;;;;;;5021810;28;20054;-59
2022/06/10 06:18:40;;;;;;;16.55;5.10;;;14.90;99.90;;;;;;5021942;28;20038;-59
2022/06/10 06:21:06;;;;;;;17.77;4.75;;;14.90;99.90;;;;;;5022608;28;20046;-59
2022/06/10 06:23:32;;;;;;;14.02;4.88;;;14.80;99.90;;;;;;5021087;28;20056;-58
2022/06/10 06:25:58;;;;;;;17.25;4.78;;;14.80;99.90;;;;;;5022691;28;20052;-59
2022/06/10 06:28:24;;;;;;;14.80;4.97;;;14.80;99.90;;;;;;5021405;28;20057;-59
2022/06/10 06:30:50;;;;;;;16.20;6.28;;;14.70;99.90;;;;;;5022427;28;20042;-59
2022/06/10 06:33:16;;;;;;;18.02;6.38;;;14.60;99.90;;;;;;5022032;28;20044;-58
2022/06/10 06:35:46;;;;;;;15.23;5.82;;;14.60;99.90;;;;;;5004082;28;20502;-59
2022/06/10 06:38:11;;;;;;;14.57;5.68;;;14.70;99.90;;;;;;5022496;28;20418;-59
2022/06/10 06:40:37;;;;;;;15.43;5.65;;;14.70;99.90;;;;;;5020356;28;20038;-59
2022/06/10 06:43:03;;;;;;;15.27;5.50;;;14.80;99.90;;;;;;5022416;28;20073;-59
2022/06/10 06:45:30;;;;;;;13.75;5.05;;;14.80;99.90;;;;;;5020567;28;20053;-58
2022/06/10 06:47:55;;;;;;;18.98;6.47;;;14.80;99.90;;;;;;5022382;28;20053;-59
2022/06/10 06:50:27;;;;;;;15.07;6.00;;;14.90;99.90;;;;;;5021382;28;20042;-58
2022/06/10 06:52:56;;;;;;;20.85;7.15;;;15.10;99.90;;;;;;5021430;28;20410;-58
2022/06/10 06:55:21;;;;;;;17.13;6.20;;;15.10;99.90;;;;;;5022046;28;20037;-58
2022/06/10 06:57:49;;;;;;;16.60;5.95;;;15.10;99.90;;;;;;5020398;28;20041;-58
2022/06/10 07:00:16;;;;;;;16.13;6.75;;;15.10;99.90;;;;;;5004641;28;20054;-58
2022/06/10 07:02:43;;;;;;;13.05;5.95;;;15.20;99.90;;;;;;5020679;28;20045;-58
2022/06/10 07:05:10;;;;;;;17.70;6.22;;;15.30;99.90;;;;;;5021722;28;20046;-58
2022/06/10 07:07:36;;;;;;;18.73;7.20;;;15.40;99.90;;;;;;5021312;28;20053;-59
2022/06/10 07:10:03;;;;;;;18.90;6.22;;;15.40;99.90;;;;;;5020974;28;20088;-58
2022/06/10 07:12:29;;;;;;;15.38;6.70;;;15.50;99.90;;;;;;5021648;28;20034;-59
2022/06/10 07:14:54;;;;;;;17.65;6.75;;;15.50;99.90;;;;;;5020362;28;20048;-59
2022/06/10 07:17:20;;;;;;;13.70;5.68;;;15.60;99.90;;;;;;5021624;28;20058;-59
2022/06/10 07:19:48;;;;;;;19.15;7.28;;;15.60;99.90;;;;;;5020265;28;20081;-59
2022/06/10 07:22:15;;;;;;;16.25;6.57;;;15.70;99.90;;;;;;5003630;28;20117;-59
2022/06/10 07:24:42;;;;;;;15.85;6.88;;;15.60;99.90;;;;;;5020857;28;20054;-58
2022/06/10 07:27:08;;;;;;;16.13;6.63;;;15.60;99.90;;;;;;5020681;28;20620;-59
2022/06/10 07:29:34;;;;;;;15.45;6.05;;;15.70;99.90;;;;;;5021465;28;20525;-58
2022/06/10 07:31:59;;;;;;;11.77;6.05;;;15.60;99.90;;;;;;5019964;28;20038;-59
2022/06/10 07:34:25;;;;;;;16.55;5.90;;;15.70;99.90;;;;;;5021767;28;20045;-59
2022/06/10 07:36:51;;;;;;;15.23;6.15;;;15.80;99.90;;;;;;5020044;28;20037;-59
2022/06/10 07:39:17;;;;;;;13.02;5.85;;;15.70;99.90;;;;;;5021493;28;20050;-58
2022/06/10 07:42:00;;;;;;;14.38;6.85;;;15.80;99.90;;;;;;5019860;28;20046;-58
2022/06/10 07:44:34;;;;;;;15.07;5.93;;;15.80;99.90;;;;;;5020048;28;20057;-59
2022/06/10 07:47:03;;;;;;;17.55;7.05;;;15.90;99.90;;;;;;5021203;28;20048;-59
2022/06/10 07:49:29;;;;;;;12.63;6.32;;;16.00;99.90;;;;;;5019589;28;20046;-59
2022/06/10 07:51:56;;;;;;;14.57;7.18;;;16.00;99.90;;;;;;5020034;28;20121;-59
2022/06/10 07:54:23;;;;;;;13.88;7.32;;;16.10;99.90;;;;;;5020153;28;20045;-59
2022/06/10 07:56:49;;;;;;;14.90;6.60;;;16.30;99.90;;;;;;5020479;28;20050;-57
2022/06/10 07:59:15;;;;;;;12.68;6.18;;;16.30;99.90;;;;;;5020857;28;20132;-59
2022/06/10 08:01:41;;;;;;;15.40;6.38;;;16.40;99.90;;;;;;5019827;28;20042;-59
2022/06/10 08:04:08;;;;;;;13.07;6.43;;;16.40;99.90;;;;;;5020989;28;20049;-59
2022/06/10 08:06:35;;;;;;;13.85;6.53;;;16.30;99.90;;;;;;5019152;28;20046;-59
2022/06/10 08:09:01;;;;;;;16.90;6.70;;;16.30;99.90;;;;;;5021196;28;20122;-59
2022/06/10 08:11:27;;;;;;;15.48;7.07;;;16.40;99.90;;;;;;5001809;28;20052;-58
2022/06/10 08:13:53;;;;;;;16.60;6.75;;;16.50;99.90;;;;;;5020628;28;20046;-59
2022/06/10 08:16:19;;;;;;;11.45;6.50;;;16.70;99.90;;;;;;5020044;28;20053;-59
2022/06/10 08:18:46;;;;;;;14.85;6.97;;;16.80;99.90;;;;;;5020008;28;20052;-59
2022/06/10 08:23:56;;;;;;;13.55;6.22;;;16.50;99.90;;;;;;4999472;28;20061;-59
2022/06/10 08:26:22;;;;;;;12.23;6.18;;;16.40;99.90;;;;;;5001079;28;20095;-58
2022/06/10 08:28:48;;;;;;;12.35;6.30;;;16.20;99.90;;;;;;5000014;28;20510;-59
2022/06/10 08:31:14;;;;;;;11.98;7.05;;;16.10;99.90;;;;;;5000639;28;20038;-59
2022/06/10 08:33:40;;;;;;;15.07;7.22;;;16.10;99.90;;;;;;5000545;28;20078;-58
2022/06/10 08:36:08;;;;;;;12.63;6.30;;;16.10;99.90;;;;;;4999550;28;20042;-58
2022/06/10 08:38:34;;;;;;;12.70;7.55;;;16.30;99.90;;;;;;5001142;28;20072;-59
2022/06/10 08:41:24;;;;;;;11.15;7.10;;;16.30;99.90;;;;;;4999371;28;20053;-58
2022/06/10 08:44:22;;;;;;;14.23;8.05;;;16.40;99.90;;;;;;5000423;28;20106;-58
2022/06/10 08:47:10;;;;;;;14.30;8.27;;;16.50;99.90;;;;;;5000917;28;20050;-59
2022/06/10 08:49:58;;;;;;;19.08;8.45;;;16.50;99.90;;;;;;4999394;28;20074;-59
2022/06/10 08:52:36;;;;;;;14.13;7.90;;;16.70;99.90;;;;;;5000330;28;20578;-59
2022/06/10 08:55:36;;;;;;;14.63;8.32;;;16.80;99.90;;;;;;5000265;28;20046;-59
2022/06/10 08:58:11;;;;;;;16.75;8.02;;;16.90;99.90;;;;;;4998919;28;20046;-59
2022/06/10 09:00:40;;;;;;;14.38;7.25;;;16.80;99.90;;;;;;5000259;28;20569;-59
2022/06/10 09:03:19;;;;;;;15.45;6.93;;;16.80;99.90;;;;;;5000380;28;20082;-59
2022/06/10 09:05:50;;;;;;;14.88;6.88;;;16.90;99.90;;;;;;5003189;28;20046;-59
2022/06/10 09:08:37;;;;;;;13.53;6.67;;;16.90;99.90;;;;;;5004243;28;20449;-59
2022/06/10 09:11:25;;;;;;;18.73;8.25;;;16.90;99.90;;;;;;5002146;28;20828;-59
2022/06/10 09:13:54;;;;;;;17.50;8.63;;;16.90;99.90;;;;;;5003438;28;20050;-59
2022/06/10 09:16:30;;;;;;;20.05;8.48;;;16.90;99.90;;;;;;5003334;28;20085;-58
2022/06/10 09:19:19;;;;;;;19.85;8.38;;;16.90;99.90;;;;;;5002808;28;20073;-59
2022/06/10 09:22:02;;;;;;;17.42;8.05;;;16.90;99.90;;;;;;4978434;28;20474;-58
2022/06/10 09:24:31;;;;;;;;;;;16.90;99.90;;;;;;5023055;28;20042;-58
2022/06/10 09:27:15;;;;;;;17.73;8.77;;;16.80;99.90;;;;;;5005175;28;19947;-59
2022/06/10 09:29:42;;;;;;;15.52;8.57;;;16.80;99.90;;;;;;5023515;28;20053;-58
2022/06/10 09:32:33;;;;;;;16.27;7.80;;;16.90;99.90;;;;;;5021633;28;20056;-59
2022/06/10 09:35:41;;;;;;;18.15;8.27;;;16.90;99.90;;;;;;5023257;28;20042;-58
2022/06/10 09:38:28;;;;;;;17.80;7.95;;;17.00;99.90;;;;;;4987914;28;20054;-59
2022/06/10 09:41:27;;;;;;;24.17;9.05;;;17.10;99.90;;;;;;5021774;28;20107;-59
2022/06/10 09:43:58;;;;;;;16.80;7.47;;;17.20;99.90;;;;;;5022715;28;20053;-59
2022/06/10 09:46:36;;;;;;;17.92;6.85;;;17.30;99.90;;;;;;5022804;28;20042;-58
2022/06/10 09:49:40;;;;;;;15.63;7.65;;;17.20;99.90;;;;;;5021580;28;20068;-58
2022/06/10 09:52:27;;;;;;;12.05;6.80;;;17.40;99.90;;;;;;5023065;28;20046;-59
2022/06/10 09:54:55;;;;;;;17.05;6.47;;;17.70;99.90;;;;;;5022335;28;20540;-59
2022/06/10 09:57:37;;;;;;;13.43;5.97;;;17.80;99.90;;;;;;5021853;28;20046;-59
2022/06/10 10:00:18;;;;;;;14.27;6.60;;;17.90;99.90;;;;;;5023055;28;20107;-59
2022/06/10 10:02:44;;;;;;;12.95;6.65;;;18.00;99.90;;;;;;5021385;28;20088;-59
2022/06/10 10:05:45;;;;;;;16.23;6.25;;;17.90;99.90;;;;;;5022592;28;20046;-59
2022/06/10 10:08:39;;;;;;;17.10;7.45;;;17.90;99.90;;;;;;5022649;28;20041;-59
2022/06/10 10:11:36;;;;;;;17.98;6.85;;;17.70;99.90;;;;;;5021601;28;20098;-58
2022/06/10 10:14:26;;;;;;;15.45;6.75;;;17.70;99.90;;;;;;5021685;28;20152;-59
2022/06/10 10:17:11;;;;;;;16.50;6.85;;;17.60;99.90;;;;;;5022747;28;20050;-58
2022/06/10 10:19:42;;;;;;;13.55;6.40;;;17.50;99.90;;;;;;5021256;28;20069;-58
2022/06/10 10:22:26;;;;;;;19.88;7.85;;;17.40;99.90;;;;;;5022617;28;20050;-59
2022/06/10 10:24:52;;;;;;;16.50;7.32;;;17.50;99.90;;;;;;5022058;28;20057;-58
2022/06/10 10:27:31;;;;;;;16.90;7.63;;;17.50;99.90;;;;;;5021452;28;20456;-59
2022/06/10 10:30:13;;;;;;;21.00;8.18;;;17.50;99.90;;;;;;5022496;28;20050;-59
2022/06/10 10:32:42;;;;;;;15.50;7.45;;;17.70;99.90;;;;;;5021058;28;20088;-60
2022/06/10 10:35:19;;;;;;;18.77;7.63;;;17.90;99.90;;;;;;5022305;28;20042;-59
2022/06/10 10:37:56;;;;;;;17.90;8.30;;;17.90;99.90;;;;;;5022365;28;20034;-59
2022/06/10 10:40:39;;;;;;;20.77;8.30;;;17.90;99.90;;;;;;5020865;28;20048;-59
2022/06/10 10:43:07;;;;;;;;;;;17.90;99.90;;;;;;5022811;28;20046;-59
2022/06/10 10:45:36;;;;;;;18.77;9.13;;;17.90;99.90;;;;;;5020581;28;19921;-59
2022/06/10 10:48:18;;;;;;;17.42;8.13;;;17.90;99.90;;;;;;5021892;28;20034;-59
2022/06/10 10:51:11;;;;;;;18.33;9.70;;;17.90;99.90;;;;;;5021861;28;20038;-59
2022/06/10 10:53:48;;;;;;;18.30;9.88;;;17.80;99.90;;;;;;5020143;28;20049;-59
2022/06/10 10:56:16;;;;;;;19.10;8.50;;;17.80;99.90;;;;;;5022226;28;20053;-59
2022/06/10 10:58:53;;;;;;;16.90;8.70;;;17.80;99.90;;;;;;5020846;28;20069;-59
2022/06/10 11:01:46;;;;;;;14.65;9.45;;;17.80;99.90;;;;;;5020962;28;20049;-59
2022/06/10 11:04:26;;;;;;;16.08;8.10;;;17.80;99.90;;;;;;5022147;28;20053;-59
2022/06/10 11:07:16;;;;;;;15.18;7.28;;;17.90;99.90;;;;;;5020305;28;20092;-60
2022/06/10 11:09:44;;;;;;;15.27;7.45;;;18.00;99.90;;;;;;5015289;28;20043;-60
2022/06/10 11:12:16;;;;;;;16.60;7.63;;;18.00;99.90;;;;;;5021462;28;20052;-59
2022/06/10 11:14:48;;;;;;;14.10;7.55;;;18.10;99.90;;;;;;5020159;28;20077;-60
2022/06/10 11:17:19;;;;;;;16.48;7.38;;;18.10;99.90;;;;;;5021678;28;20053;-59
2022/06/10 11:19:57;;;;;;;13.35;7.47;;;18.10;99.90;;;;;;5020262;28;20064;-59
2022/06/10 11:22:31;;;;;;;12.85;7.68;;;18.20;99.90;;;;;;5021175;28;20073;-60
2022/06/10 11:25:06;;;;;;;12.18;5.88;;;18.20;99.90;;;;;;5021200;28;20049;-59
2022/06/10 11:27:39;;;;;;;12.60;6.35;;;18.50;99.90;;;;;;5019983;28;20099;-60
2022/06/10 11:30:08;;;;;;;11.35;6.40;;;18.60;99.90;;;;;;5021444;28;20501;-59
2022/06/10 11:32:48;;;;;;;11.35;5.53;;;18.60;99.90;;;;;;5020030;28;20054;-60
2022/06/10 11:35:31;;;;;;;13.32;6.00;;;18.60;99.90;;;;;;5020790;28;20065;-60
2022/06/10 11:38:18;;;;;;;12.55;5.38;;;18.60;99.90;;;;;;5020814;28;20056;-61
2022/06/10 11:40:47;;;;;;;9.95;6.10;;;18.90;99.90;;;;;;5019420;28;20064;-60
2022/06/10 11:43:19;;;;;;;10.38;5.60;;;19.10;99.90;;;;;;5003616;28;20050;-59
2022/06/10 11:46:13;;;;;;;11.23;5.63;;;19.10;99.90;;;;;;5019556;28;20054;-60
2022/06/10 11:48:59;;;;;;;12.80;5.97;;;19.00;99.90;;;;;;5002221;28;20054;-60
2022/06/10 11:51:34;;;;;;;9.60;5.35;;;18.90;99.90;;;;;;5021186;28;20045;-59
2022/06/10 11:54:12;;;;;;;9.52;6.10;;;18.80;99.90;;;;;;5019523;28;20433;-59
2022/06/10 12:00:14;;;;;;;15.10;7.05;;;18.70;99.90;;;;;;5020728;28;20059;-58
2022/06/10 12:02:49;;;;;;;11.55;6.55;;;18.60;99.90;;;;;;4985314;28;20438;-59
2022/06/10 12:05:45;;;;;;;12.77;7.35;;;18.70;99.90;;;;;;5020398;28;20102;-59
2022/06/10 12:08:28;;;;;;;13.55;6.88;;;18.80;99.90;;;;;;5020651;28;20041;-59
2022/06/10 12:11:00;;;;;;;16.05;7.30;;;18.80;99.90;;;;;;5018858;28;20492;-59
2022/06/10 12:13:27;;;;;;;;;;;18.70;99.90;;;;;;5020696;28;20037;-59
2022/06/10 12:15:56;;;;;;;13.60;6.82;;;18.80;99.90;;;;;;5019306;28;19921;-59
2022/06/10 12:18:27;;;;;;;15.57;7.53;;;18.80;99.90;;;;;;5002565;28;20430;-59
2022/06/10 12:20:58;;;;;;;17.00;7.93;;;18.80;99.90;;;;;;5020156;28;20049;-60
2022/06/10 12:23:29;;;;;;;15.10;7.80;;;19.10;99.90;;;;;;5019101;28;20044;-60
2022/06/10 12:26:21;;;;;;;14.93;7.47;;;19.20;99.90;;;;;;5002821;28;20081;-59
2022/06/10 12:29:01;;;;;;;15.70;7.63;;;19.40;99.90;;;;;;5013975;28;20054;-60
2022/06/10 12:31:45;;;;;;;12.35;7.40;;;19.30;99.90;;;;;;5019192;28;20046;-60
2022/06/10 12:34:16;;;;;;;14.80;7.25;;;19.40;99.90;;;;;;5020457;28;20050;-59
2022/06/10 12:37:05;;;;;;;13.48;7.90;;;19.70;99.90;;;;;;5018663;28;20049;-60
2022/06/10 12:39:50;;;;;;;15.60;7.20;;;20.00;99.90;;;;;;5023038;28;20100;-59
2022/06/10 12:42:18;;;;;;;15.68;8.85;;;20.20;99.90;;;;;;5024189;28;20070;-60
2022/06/10 12:44:49;;;;;;;15.55;7.60;;;20.40;99.90;;;;;;5022702;28;20068;-58
2022/06/10 12:47:33;;;;;;;16.00;8.10;;;20.40;99.90;;;;;;5024324;28;20042;-60
2022/06/10 12:50:02;;;;;;;14.27;6.95;;;20.30;99.90;;;;;;5022634;28;20517;-60
2022/06/10 12:52:36;;;;;;;11.57;6.47;;;20.20;99.90;;;;;;5023642;28;20038;-60
2022/06/10 12:55:20;;;;;;;7.85;4.93;;;20.10;99.90;;;;;;5023849;28;20135;-60
2022/06/10 12:57:48;;;;;;;10.30;4.00;;;20.00;99.90;;;;;;5022219;28;20042;-60
2022/06/10 13:00:22;;;;;;;12.18;4.93;;;20.00;99.90;;;;;;5024081;28;20061;-60
2022/06/10 13:02:59;;;;;;;10.35;4.03;;;20.00;99.90;;;;;;5022419;28;20073;-59
2022/06/10 13:05:46;;;;;;;9.40;4.13;;;20.00;99.90;;;;;;5023336;28;20081;-60
2022/06/10 13:08:30;;;;;;;9.40;2.90;;;20.20;99.90;;;;;;5006246;28;20052;-59
2022/06/10 13:10:57;;;;;;;7.68;3.17;;;20.60;99.90;;;;;;5021840;28;20083;-60
2022/06/10 13:13:24;;;;;;;6.82;2.33;;;21.00;99.90;;;;;;5023421;28;20053;-60
2022/06/10 13:15:53;;;;;;;6.57;2.30;;;21.00;99.90;;;;;;5022535;28;20038;-59
2022/06/10 13:18:22;;;;;;;7.88;2.60;;;21.00;99.90;;;;;;5023302;28;20045;-59
2022/06/10 13:20:49;;;;;;;7.32;2.13;;;20.70;99.90;;;;;;5023609;28;20058;-59
2022/06/10 13:23:19;;;;;;;5.90;2.30;;;20.80;99.90;;;;;;5022099;28;20050;-60